createdAt,value
2023-03-06T00:01:54.819Z,99972.53
2023-03-06T00:04:21.501Z,99974.97
2023-03-06T00:06:48.277Z,99966.88
2023-03-06T00:09:15.144Z,99964.69
2023-03-06T00:11:41.628Z,99966.28
2023-03-06T00:14:08.163Z,99966.91
2023-03-06T00:16:34.714Z,99965.47
2023-03-06T00:19:01.246Z,99966.28
2023-03-06T00:21:27.944Z,99973.75
2023-03-06T00:23:54.546Z,99955.41
2023-03-06T00:26:21.015Z,99962.84
2023-03-06T00:28:47.507Z,99966.88
2023-03-06T00:31:14.186Z,99953.78
2023-03-06T00:33:40.748Z,99958.22
2023-03-06T00:36:07.576Z,99947.75
2023-03-06T00:38:35.650Z,99950.16
2023-03-06T00:41:13.278Z,99939.44
2023-03-06T00:43:40.191Z,99934.81
2023-03-06T00:46:07.214Z,99925.56
2023-03-06T00:48:34.361Z,99921.91
2023-03-06T00:51:01.252Z,99916.28
2023-03-06T00:53:27.799Z,99910.81
2023-03-06T00:55:54.320Z,99910.19
2023-03-06T00:58:20.917Z,99909.38
2023-03-06T01:00:49.842Z,99913.63
2023-03-06T01:03:16.615Z,99907.38
2023-03-06T01:05:43.166Z,99898.50
2023-03-06T01:08:09.968Z,99899.13
2023-03-06T01:10:40.615Z,99902.13
2023-03-06T01:13:07.308Z,99895.06
2023-03-06T01:15:34.276Z,99891.81
2023-03-06T01:18:00.984Z,99887.38
2023-03-06T01:20:28.006Z,99881.13
2023-03-06T01:22:56.563Z,99880.94
2023-03-06T01:25:24.770Z,99885.94
2023-03-06T01:27:51.656Z,99879.69
2023-03-06T01:30:18.275Z,99876.09
2023-03-06T01:32:45.057Z,99862.75
2023-03-06T01:35:12.944Z,99866.19
2023-03-06T01:37:40.221Z,99866.97
2023-03-06T01:40:12.044Z,99860.13
2023-03-06T01:42:39.046Z,99856.31
2023-03-06T01:45:11.290Z,99847.41
2023-03-06T01:47:37.858Z,99842.97
2023-03-06T01:50:08.655Z,99847.19
2023-03-06T01:52:45.467Z,99826.22
2023-03-06T01:55:18.322Z,99831.28
2023-03-06T01:57:48.599Z,99825.22
2023-03-06T02:00:18.601Z,99817.34
2023-03-06T02:02:50.073Z,99823.41
2023-03-06T02:05:16.759Z,99822.16
2023-03-06T02:07:45.117Z,99813.28
2023-03-06T02:10:12.670Z,99812.28
2023-03-06T02:12:43.735Z,99798.38
2023-03-06T02:15:15.871Z,99796.34
2023-03-06T02:17:44.586Z,99786.66
2023-03-06T02:20:41.027Z,99783.84
2023-03-06T02:23:10.505Z,99783.84
2023-03-06T02:25:44.262Z,99777.56
2023-03-06T02:28:17.634Z,99770.50
2023-03-06T02:30:46.968Z,99763.44
2023-03-06T02:33:14.769Z,99763.25
2023-03-06T02:35:46.706Z,99761.44
2023-03-06T02:38:19.970Z,99753.56
2023-03-06T02:40:49.732Z,99752.53
2023-03-06T02:43:21.587Z,99742.06
2023-03-06T02:45:50.915Z,99734.75
2023-03-06T02:48:20.138Z,99737.38
2023-03-06T02:50:47.990Z,99740.63
2023-03-06T02:53:16.735Z,99719.63
2023-03-06T02:55:43.272Z,99721.22
2023-03-06T02:58:10.095Z,99712.34
2023-03-06T03:00:36.804Z,99705.31
2023-03-06T03:03:03.976Z,99700.88
2023-03-06T03:05:30.837Z,99700.63
2023-03-06T03:07:57.347Z,99691.16
2023-03-06T03:10:24.173Z,99684.91
2023-03-06T03:12:51.181Z,99677.84
2023-03-06T03:15:18.095Z,99674.00
2023-03-06T03:17:44.696Z,99673.19
2023-03-06T03:20:14.832Z,99662.47
2023-03-06T03:22:41.393Z,99661.44
2023-03-06T03:25:08.461Z,99649.16
2023-03-06T03:27:34.985Z,99647.91
2023-03-06T03:30:01.509Z,99640.03
2023-03-06T03:32:28.053Z,99644.25
2023-03-06T03:34:57.584Z,99640.84
2023-03-06T03:37:24.113Z,99640.19
2023-03-06T03:39:50.641Z,99637.00
2023-03-06T03:42:17.172Z,99629.94
2023-03-06T03:44:43.764Z,99631.53
2023-03-06T03:47:10.276Z,99621.84
2023-03-06T03:49:36.884Z,99612.97
2023-03-06T03:52:03.522Z,99616.38
2023-03-06T03:54:30.149Z,99608.28
2023-03-06T03:56:57.032Z,99599.63
2023-03-06T03:59:23.559Z,99598.59
2023-03-06T04:01:50.084Z,99599.19
2023-03-06T04:04:16.773Z,99598.16
2023-03-06T04:06:44.496Z,99592.94
2023-03-06T04:09:11.002Z,99591.09
2023-03-06T04:11:37.605Z,99593.53
2023-03-06T04:14:04.296Z,99584.84
2023-03-06T04:16:30.895Z,99585.44
2023-03-06T04:18:57.475Z,99579.16
2023-03-06T04:21:24.076Z,99586.03
2023-03-06T04:23:50.627Z,99578.16
2023-03-06T04:26:17.147Z,99574.50
2023-03-06T04:28:43.784Z,99570.06
2023-03-06T04:31:12.728Z,99561.94
2023-03-06T04:33:39.882Z,99557.50
2023-03-06T04:36:06.591Z,99554.69
2023-03-06T04:38:33.211Z,99545.78
2023-03-06T04:40:59.777Z,99540.53
2023-03-06T04:43:26.583Z,99538.72
2023-03-06T04:45:53.145Z,99531.63
2023-03-06T04:48:19.866Z,99534.06
2023-03-06T04:50:46.499Z,99533.81
2023-03-06T04:53:14.576Z,99527.78
2023-03-06T04:55:41.112Z,99535.22
2023-03-06T04:58:07.668Z,99524.72
2023-03-06T05:00:34.275Z,99519.47
2023-03-06T05:03:01.373Z,99521.06
2023-03-06T05:05:29.031Z,99514.00
2023-03-06T05:07:55.759Z,99516.41
2023-03-06T05:10:23.027Z,99518.81
2023-03-06T05:12:49.624Z,99511.97
2023-03-06T05:15:16.354Z,99501.25
2023-03-06T05:17:43.105Z,99501.25
2023-03-06T05:20:11.653Z,99501.00
2023-03-06T05:22:38.520Z,99491.34
2023-03-06T05:25:05.755Z,99498.97
2023-03-06T05:27:32.544Z,99496.13
2023-03-06T05:29:59.288Z,99492.50
2023-03-06T05:32:26.015Z,99475.91
2023-03-06T05:34:52.613Z,99484.63
2023-03-06T05:37:19.127Z,99476.50
2023-03-06T05:39:45.922Z,99482.56
2023-03-06T05:42:12.514Z,99479.72
2023-03-06T05:44:39.107Z,99472.66
2023-03-06T05:47:05.765Z,99470.03
2023-03-06T05:49:34.789Z,99466.38
2023-03-06T05:52:04.064Z,99467.16
2023-03-06T05:54:35.534Z,99457.47
2023-03-06T05:57:02.852Z,99453.81
2023-03-06T05:59:29.360Z,99461.47
2023-03-06T06:01:56.598Z,99456.22
2023-03-06T06:04:24.846Z,99452.56
2023-03-06T06:06:53.912Z,99443.91
2023-03-06T06:09:22.459Z,99447.31
2023-03-06T06:11:53.603Z,99453.97
2023-03-06T06:14:20.457Z,99451.34
2023-03-06T06:16:47.317Z,99449.72
2023-03-06T06:19:20.346Z,99451.34
2023-03-06T06:21:48.796Z,99448.72
2023-03-06T06:24:17.828Z,99444.25
2023-03-06T06:26:45.039Z,99442.44
2023-03-06T06:29:13.022Z,99432.72
2023-03-06T06:31:39.866Z,99436.16
2023-03-06T06:34:07.698Z,99432.50
2023-03-06T06:36:34.352Z,99431.69
2023-03-06T06:39:00.906Z,99431.50
2023-03-06T06:41:42.644Z,99427.03
2023-03-06T06:44:15.483Z,99424.19
2023-03-06T06:49:32.714Z,99422.16
2023-03-06T06:51:59.519Z,99411.66
2023-03-06T06:54:26.422Z,99411.66
2023-03-06T06:56:53.565Z,99414.84
2023-03-06T06:59:23.548Z,99405.94
2023-03-06T07:01:53.540Z,99392.81
2023-03-06T07:04:20.329Z,99391.00
2023-03-06T07:06:46.943Z,99389.97
2023-03-06T07:09:13.975Z,99383.69
2023-03-06T07:11:41.686Z,99383.69
2023-03-06T07:14:08.742Z,99377.19
2023-03-06T07:16:35.437Z,99381.41
2023-03-06T07:19:02.420Z,99372.50
2023-03-06T07:21:29.167Z,99374.13
2023-03-06T07:23:57.513Z,99379.38
2023-03-06T07:26:27.819Z,99375.91
2023-03-06T07:28:55.071Z,99378.34
2023-03-06T07:31:24.658Z,99380.72
2023-03-06T07:33:52.150Z,99386.75
2023-03-06T07:36:18.855Z,99383.94
2023-03-06T07:38:45.757Z,99388.38
2023-03-06T07:41:13.847Z,99380.28
2023-03-06T07:43:41.519Z,99378.44
2023-03-06T07:46:08.908Z,99376.63
2023-03-06T07:48:36.711Z,99370.13
2023-03-06T07:51:12.514Z,99368.03
2023-03-06T07:53:39.016Z,99379.69
2023-03-06T07:56:09.358Z,99368.19
2023-03-06T07:58:37.793Z,99367.75
2023-03-06T08:01:05.887Z,99359.63
2023-03-06T08:03:32.990Z,99366.25
2023-03-06T08:06:17.741Z,99363.94
2023-03-06T08:08:45.733Z,99357.44
2023-03-06T08:11:14.138Z,99364.06
2023-03-06T08:13:41.340Z,99357.53
2023-03-06T08:16:08.663Z,99367.38
2023-03-06T08:18:35.598Z,99348.75
2023-03-06T08:21:11.251Z,99355.16
2023-03-06T08:23:38.100Z,99344.97
2023-03-06T08:26:07.615Z,99341.06
2023-03-06T08:28:34.661Z,99342.78
2023-03-06T08:31:28.395Z,99343.38
2023-03-06T08:33:56.896Z,99340.84
2023-03-06T08:36:24.030Z,99341.97
2023-03-06T08:38:51.077Z,99342.31
2023-03-06T08:41:18.183Z,99340.81
2023-03-06T08:43:44.843Z,99340.13
2023-03-06T08:46:11.994Z,99336.00
2023-03-06T08:48:38.894Z,99336.31
2023-03-06T08:51:06.094Z,99328.78
2023-03-06T08:53:42.560Z,99323.06
2023-03-06T08:56:26.017Z,99326.81
2023-03-06T08:58:53.577Z,99317.41
2023-03-06T09:01:26.445Z,99320.41
2023-03-06T09:03:58.348Z,99314.66
2023-03-06T09:06:26.363Z,99321.84
2023-03-06T09:08:54.240Z,99320.13
2023-03-06T09:11:23.570Z,99312.56
2023-03-06T09:13:50.281Z,99309.22
2023-03-06T09:16:16.910Z,99308.50
2023-03-06T09:18:43.544Z,99305.41
2023-03-06T09:21:10.665Z,99304.69
2023-03-06T09:23:39.483Z,99299.28
2023-03-06T09:26:07.488Z,99285.66
2023-03-06T09:28:39.238Z,99285.47
2023-03-06T09:31:13.916Z,99278.69
2023-03-06T09:33:40.614Z,99276.97
2023-03-06T09:36:08.489Z,99272.56
2023-03-06T09:38:35.144Z,99270.78
2023-03-06T09:41:28.382Z,99276.97
2023-03-06T09:44:06.154Z,99263.63
2023-03-06T09:46:50.577Z,99267.66
2023-03-06T09:49:38.310Z,99260.97
2023-03-06T09:52:40.340Z,99257.34
2023-03-06T09:55:28.944Z,99260.88
2023-03-06T09:58:20.563Z,99258.03
2023-03-06T10:00:59.678Z,99258.94
2023-03-06T10:03:32.305Z,99250.84
2023-03-06T10:06:08.536Z,99257.22
2023-03-06T10:08:35.724Z,99263.34
2023-03-06T10:11:14.812Z,99253.13
2023-03-06T10:13:45.889Z,99252.63
2023-03-06T10:16:23.728Z,99253.97
2023-03-06T10:18:50.750Z,99252.41
2023-03-06T10:21:37.547Z,99247.47
2023-03-06T10:24:22.733Z,99243.53
2023-03-06T10:26:59.346Z,99250.19
2023-03-06T10:29:50.162Z,99242.81
2023-03-06T10:32:46.175Z,99245.75
2023-03-06T10:35:21.714Z,99248.91
2023-03-06T10:37:49.222Z,99240.78
2023-03-06T10:40:21.592Z,99244.78
2023-03-06T10:42:49.514Z,99246.88
2023-03-06T10:45:18.787Z,99243.22
2023-03-06T10:47:46.129Z,99248.00
2023-03-06T10:50:21.747Z,99238.81
2023-03-06T10:53:01.236Z,99241.75
2023-03-06T10:55:33.702Z,99237.81
2023-03-06T10:58:27.570Z,99239.72
2023-03-06T11:01:21.890Z,99235.53
2023-03-06T11:03:48.814Z,99235.84
2023-03-06T11:06:31.949Z,99229.81
2023-03-06T11:09:16.924Z,99224.81
2023-03-06T11:11:43.425Z,99224.59
2023-03-06T11:14:23.167Z,99220.41
2023-03-06T11:16:55.226Z,99216.53
2023-03-06T11:19:27.982Z,99207.34
2023-03-06T11:22:05.711Z,99201.63
2023-03-06T11:24:47.486Z,99201.97
2023-03-06T11:27:16.965Z,99210.47
2023-03-06T11:29:51.509Z,99199.97
2023-03-06T11:32:24.749Z,99199.72
2023-03-06T11:34:57.590Z,99200.81
2023-03-06T11:37:45.972Z,99196.38
2023-03-06T11:40:31.792Z,99188.47
2023-03-06T11:43:12.600Z,99201.19
2023-03-06T11:45:51.659Z,99197.22
2023-03-06T11:48:24.757Z,99191.94
2023-03-06T11:50:53.829Z,99200.13
2023-03-06T11:53:23.401Z,99198.53
2023-03-06T11:55:59.211Z,99199.03
2023-03-06T11:58:53.325Z,99192.97
2023-03-06T12:01:23.631Z,99181.84
2023-03-06T12:04:11.078Z,99185.03
2023-03-06T12:06:56.484Z,99182.91
2023-03-06T12:09:58.637Z,99176.91
2023-03-06T12:12:29.021Z,99172.94
2023-03-06T12:14:58.400Z,99158.22
2023-03-06T12:17:24.872Z,99162.22
2023-03-06T12:20:14.482Z,99157.50
2023-03-06T12:23:14.494Z,99150.63
2023-03-06T12:25:50.637Z,99150.94
2023-03-06T12:28:38.560Z,99137.19
2023-03-06T12:31:08.190Z,99126.38
2023-03-06T12:34:01.662Z,99133.03
2023-03-06T12:36:49.630Z,99122.16
2023-03-06T12:39:22.167Z,99121.41
2023-03-06T12:41:57.740Z,99113.97
2023-03-06T12:44:38.811Z,99106.31
2023-03-06T12:47:10.465Z,99102.88
2023-03-06T12:49:41.609Z,99101.28
2023-03-06T12:52:18.556Z,99100.78
2023-03-06T12:54:45.668Z,99098.16
2023-03-06T12:57:14.968Z,99096.56
2023-03-06T12:59:47.865Z,99103.16
2023-03-06T13:02:17.426Z,99100.00
2023-03-06T13:05:21.592Z,99089.91
2023-03-06T13:07:54.000Z,99087.03
2023-03-06T13:10:35.878Z,99079.88
2023-03-06T13:13:39.775Z,99081.19
2023-03-06T13:16:18.551Z,99079.34
2023-03-06T13:18:50.876Z,99089.94
2023-03-06T13:22:03.167Z,99094.94
2023-03-06T13:24:37.670Z,99090.72
2023-03-06T13:27:07.379Z,99081.72
2023-03-06T13:29:36.941Z,99080.13
2023-03-06T13:32:03.516Z,99081.72
2023-03-06T13:34:47.037Z,99071.13
2023-03-06T13:37:13.497Z,99062.13
2023-03-06T13:39:59.105Z,99079.59
2023-03-06T13:42:36.733Z,99071.41
2023-03-06T13:45:22.918Z,99074.31
2023-03-06T13:48:10.971Z,99076.41
2023-03-06T13:50:49.577Z,99067.94
2023-03-06T13:53:29.698Z,99063.22
2023-03-06T13:56:18.101Z,99053.13
2023-03-06T13:59:09.474Z,99058.44
2023-03-06T14:01:47.984Z,99076.72
2023-03-06T14:04:33.211Z,99083.03
2023-03-06T14:07:11.792Z,99084.34
2023-03-06T14:09:58.011Z,99092.81
2023-03-06T14:12:28.889Z,99093.09
2023-03-06T14:14:58.006Z,99097.59
2023-03-06T14:17:35.110Z,99108.44
2023-03-06T14:20:14.459Z,99107.63
2023-03-06T14:22:42.340Z,99091.97
2023-03-06T14:25:26.837Z,99096.97
2023-03-06T14:27:58.221Z,99093.78
2023-03-06T14:30:27.070Z,99101.72
2023-03-06T14:32:55.168Z,99088.50
2023-03-06T14:35:32.350Z,99094.81
2023-03-06T14:38:02.779Z,99102.72
2023-03-06T14:40:35.519Z,99092.16
2023-03-06T14:43:24.016Z,99083.72
2023-03-06T14:45:51.468Z,99080.56
2023-03-06T14:48:18.676Z,99083.19
2023-03-06T14:50:54.124Z,99085.06
2023-03-06T14:53:33.474Z,99080.56
2023-03-06T14:56:06.356Z,99077.91
2023-03-06T14:58:35.781Z,99080.28
2023-03-06T15:01:06.630Z,99066.28
2023-03-06T15:03:46.888Z,99066.28
2023-03-06T15:06:41.914Z,99074.72
2023-03-06T15:09:17.621Z,99071.56
2023-03-06T15:11:51.072Z,99072.88
2023-03-06T15:14:20.144Z,99073.94
2023-03-06T15:16:46.666Z,99073.13
2023-03-06T15:19:22.170Z,99067.31
2023-03-06T15:21:51.882Z,99066.53
2023-03-06T15:24:34.892Z,99065.44
2023-03-06T15:27:04.641Z,99066.53
2023-03-06T15:29:31.748Z,99052.50
2023-03-06T15:32:35.871Z,99057.00
2023-03-06T15:35:24.159Z,99057.00
2023-03-06T15:37:52.186Z,99047.22
2023-03-06T15:40:20.498Z,99052.25
2023-03-06T15:42:47.217Z,99046.16
2023-03-06T15:45:19.925Z,99039.28
2023-03-06T15:47:48.253Z,99039.84
2023-03-06T15:50:25.186Z,99035.34
2023-03-06T15:52:52.340Z,99034.56
2023-03-06T15:55:21.714Z,99035.59
2023-03-06T15:57:51.731Z,99034.00
2023-03-06T16:00:27.750Z,99030.31
2023-03-06T16:02:56.394Z,99030.31
2023-03-06T16:05:23.928Z,99030.84
2023-03-06T16:07:50.848Z,99022.38
2023-03-06T16:10:19.965Z,99024.50
2023-03-06T16:12:57.023Z,99019.72
2023-03-06T16:15:29.179Z,99014.44
2023-03-06T16:17:59.930Z,99016.81
2023-03-06T16:20:28.758Z,99015.47
2023-03-06T16:22:55.936Z,99012.31
2023-03-06T16:25:24.451Z,99009.66
2023-03-06T16:28:01.052Z,99011.75
2023-03-06T16:30:30.794Z,99009.13
2023-03-06T16:32:58.226Z,99013.63
2023-03-06T16:35:25.475Z,99011.75
2023-03-06T16:37:52.022Z,99006.75
2023-03-06T16:40:24.529Z,99012.81
2023-03-06T16:42:54.075Z,99014.69
2023-03-06T16:45:23.388Z,99012.03
2023-03-06T16:47:50.368Z,99031.31
2023-03-06T16:50:28.762Z,99024.44
2023-03-06T16:52:56.613Z,99024.97
2023-03-06T16:55:26.267Z,99024.97
2023-03-06T16:57:53.498Z,99015.75
2023-03-06T17:00:21.455Z,99021.25
2023-03-06T17:02:49.178Z,99024.19
2023-03-06T17:05:16.390Z,99023.38
2023-03-06T17:07:42.898Z,99021.78
2023-03-06T17:10:12.907Z,99023.34
2023-03-06T17:12:39.500Z,99020.19
2023-03-06T17:15:07.061Z,99023.59
2023-03-06T17:17:34.029Z,99028.09
2023-03-06T17:20:00.807Z,99024.13
2023-03-06T17:22:27.836Z,99017.50
2023-03-06T17:24:54.535Z,99017.47
2023-03-06T17:27:23.276Z,99015.63
2023-03-06T17:29:49.988Z,99023.25
2023-03-06T17:32:16.524Z,99006.34
2023-03-06T17:34:43.139Z,99017.41
2023-03-06T17:37:09.664Z,99010.00
2023-03-06T17:39:38.879Z,99003.06
2023-03-06T17:42:06.546Z,99008.34
2023-03-06T17:44:34.369Z,99004.09
2023-03-06T17:47:01.120Z,99005.91
2023-03-06T17:49:27.780Z,99005.56
2023-03-06T17:52:04.416Z,98998.44
2023-03-06T17:54:33.052Z,99008.66
2023-03-06T17:57:03.346Z,99012.81
2023-03-06T17:59:31.224Z,99006.97
2023-03-06T18:01:58.919Z,99003.19
2023-03-06T18:04:26.158Z,99011.28
2023-03-06T18:06:52.897Z,99013.09
2023-03-06T18:09:20.088Z,99011.44
2023-03-06T18:11:46.676Z,99019.06
2023-03-06T18:14:13.212Z,99015.31
2023-03-06T18:16:39.880Z,99012.88
2023-03-06T18:19:06.453Z,99017.31
2023-03-06T18:21:32.961Z,99022.78
2023-03-06T18:23:59.593Z,99021.16
2023-03-06T18:26:28.312Z,99023.47
2023-03-06T18:29:04.490Z,99018.16
2023-03-06T18:31:40.130Z,99018.66
2023-03-06T18:34:09.877Z,99021.25
2023-03-06T18:36:37.539Z,99016.41
2023-03-06T18:39:08.619Z,99014.50
2023-03-06T18:41:36.211Z,99018.38
2023-03-06T18:44:03.172Z,99014.91
2023-03-06T18:46:35.741Z,99009.34
2023-03-06T18:49:03.005Z,99012.13
2023-03-06T18:51:30.289Z,99016.06
2023-03-06T18:53:58.213Z,99019.25
2023-03-06T18:56:25.201Z,99023.66
2023-03-06T18:58:52.779Z,99009.41
2023-03-06T19:01:20.047Z,99009.34
2023-03-06T19:03:47.147Z,99008.47
2023-03-06T19:06:15.629Z,99003.22
2023-03-06T19:08:42.427Z,99002.13
2023-03-06T19:11:18.292Z,99007.63
2023-03-06T19:13:44.969Z,98999.13
2023-03-06T19:16:24.144Z,99006.22
2023-03-06T19:18:51.378Z,99003.75
2023-03-06T19:21:20.526Z,99007.91
2023-03-06T19:23:47.790Z,99007.13
2023-03-06T19:26:15.699Z,98999.66
2023-03-06T19:28:43.185Z,99000.94
2023-03-06T19:31:10.684Z,98996.84
2023-03-06T19:33:38.026Z,99001.47
2023-03-06T19:36:06.786Z,99011.13
2023-03-06T19:38:33.794Z,99001.41
2023-03-06T19:41:03.429Z,99006.81
2023-03-06T19:43:30.420Z,99012.34
2023-03-06T19:45:57.349Z,99010.97
2023-03-06T19:48:24.040Z,99003.03
2023-03-06T19:50:50.544Z,98999.06
2023-03-06T19:53:17.394Z,99002.16
2023-03-06T19:55:43.920Z,98998.75
2023-03-06T19:58:11.209Z,98992.84
2023-03-06T20:00:38.346Z,99003.34
2023-03-06T20:03:05.020Z,98998.31
2023-03-06T20:05:31.618Z,98991.63
2023-03-06T20:07:58.244Z,98988.94
2023-03-06T20:10:24.764Z,98995.50
2023-03-06T20:12:51.281Z,98989.34
2023-03-06T20:15:20.367Z,98988.47
2023-03-06T20:17:46.982Z,98994.44
2023-03-06T20:20:14.329Z,98987.25
2023-03-06T20:22:41.066Z,98991.19
2023-03-06T20:25:08.043Z,98990.59
2023-03-06T20:27:34.646Z,98982.25
2023-03-06T20:30:01.500Z,98978.50
2023-03-06T20:32:28.043Z,98986.38
2023-03-06T20:34:54.619Z,98985.81
2023-03-06T20:37:21.139Z,98987.56
2023-03-06T20:39:47.883Z,98987.03
2023-03-06T20:42:14.636Z,98985.28
2023-03-06T20:44:41.356Z,98984.69
2023-03-06T20:47:08.956Z,98985.19
2023-03-06T20:49:36.664Z,98992.03
2023-03-06T20:52:03.668Z,98986.47
2023-03-06T20:54:30.182Z,98983.75
2023-03-06T20:56:56.822Z,98982.38
2023-03-06T20:59:23.901Z,98981.34
2023-03-06T21:01:50.518Z,98981.72
2023-03-06T21:04:17.324Z,98979.91
2023-03-06T21:06:46.764Z,98973.78
2023-03-06T21:09:16.056Z,98978.22
2023-03-06T21:11:42.884Z,98976.97
2023-03-06T21:14:09.663Z,98968.28
2023-03-06T21:16:36.323Z,98972.66
2023-03-06T21:19:03.452Z,98969.94
2023-03-06T21:21:33.133Z,98968.91
2023-03-06T21:24:00.428Z,98960.47
2023-03-06T21:26:29.790Z,98962.06
2023-03-06T21:28:58.956Z,98963.59
2023-03-06T21:31:27.053Z,98964.50
2023-03-06T21:33:54.139Z,98959.72
2023-03-06T21:36:24.327Z,98962.69
2023-03-06T21:38:52.407Z,98967.22
2023-03-06T21:41:24.794Z,98960.06
2023-03-06T21:44:02.197Z,98967.13
2023-03-06T21:46:29.801Z,98966.00
2023-03-06T21:48:57.459Z,98962.69
2023-03-06T21:51:25.384Z,98961.88
2023-03-06T21:53:53.191Z,98959.25
2023-03-06T21:56:22.112Z,98959.50
2023-03-06T21:58:48.611Z,98956.38
2023-03-06T22:01:21.783Z,98957.75
2023-03-06T22:03:48.447Z,98957.28
2023-03-06T22:06:17.615Z,98954.91
2023-03-06T22:08:44.877Z,98953.63
2023-03-06T22:11:14.815Z,98958.88
2023-03-06T22:13:41.764Z,98949.44
2023-03-06T22:16:08.702Z,98948.06
2023-03-06T22:18:36.147Z,98957.28
2023-03-06T22:21:10.189Z,98951.59
2023-03-06T22:23:36.966Z,98940.50
2023-03-06T22:26:05.095Z,98937.09
2023-03-06T22:28:32.446Z,98943.13
2023-03-06T22:31:09.750Z,98938.22
2023-03-06T22:33:36.525Z,98931.38
2023-03-06T22:36:08.579Z,98919.31
2023-03-06T22:38:37.544Z,98916.44
2023-03-06T22:41:05.279Z,98918.47
2023-03-06T22:43:32.715Z,98926.34
2023-03-06T22:46:01.757Z,98922.16
2023-03-06T22:48:28.539Z,98922.16
2023-03-06T22:50:55.148Z,98917.69
2023-03-06T22:53:21.691Z,98917.69
2023-03-06T22:55:48.177Z,98911.44
2023-03-06T22:58:14.774Z,98910.38
2023-03-06T23:00:41.313Z,98906.19
2023-03-06T23:03:07.778Z,98913.22
2023-03-06T23:05:34.281Z,98909.03
2023-03-06T23:08:00.871Z,98912.94
2023-03-06T23:10:27.433Z,98919.97
2023-03-06T23:12:54.013Z,98921.34
2023-03-06T23:15:20.861Z,98916.56
2023-03-06T23:17:47.449Z,98914.19
2023-03-06T23:20:14.636Z,98912.03
2023-03-06T23:22:41.227Z,98917.88
2023-03-06T23:25:08.202Z,98911.78
2023-03-06T23:27:36.096Z,98911.50
2023-03-06T23:30:06.078Z,98912.50
2023-03-06T23:32:33.668Z,98910.66
2023-03-06T23:35:01.086Z,98916.75
2023-03-06T23:37:27.673Z,98910.66
2023-03-06T23:39:54.226Z,98897.34
2023-03-06T23:42:20.721Z,98903.06
2023-03-06T23:44:47.287Z,98907.25
2023-03-06T23:47:13.854Z,98898.84
2023-03-06T23:49:40.573Z,98887.31
2023-03-06T23:52:07.127Z,98891.50
2023-03-06T23:54:34.348Z,98896.69
2023-03-06T23:57:01.079Z,98894.06
2023-03-06T23:59:27.625Z,98895.91
